createdAt,value
2023-01-07T00:00:10.737Z,100.00
2023-01-07T00:08:02.680Z,100.00
2023-01-07T00:22:21.255Z,100.00
2023-01-07T00:24:52.125Z,100.00
2023-01-07T00:27:27.952Z,100.00
2023-01-07T00:30:03.499Z,100.00
2023-01-07T00:37:54.812Z,100.00
2023-01-07T00:40:27.481Z,100.00
2023-01-07T00:46:52.110Z,100.00
2023-01-07T00:49:27.663Z,100.00
2023-01-07T00:52:49.596Z,100.00
2023-01-07T01:00:27.695Z,100.00
2023-01-07T01:03:54.976Z,100.00
2023-01-07T01:20:58.399Z,100.00
2023-01-07T01:28:20.880Z,100.00
2023-01-07T01:39:58.093Z,100.00
2023-01-07T01:47:03.299Z,100.00
2023-01-07T01:53:57.282Z,100.00
2023-01-07T02:05:08.199Z,100.00
2023-01-07T02:21:27.106Z,100.00
2023-01-07T02:25:00.533Z,100.00
2023-01-07T02:53:51.405Z,100.00
2023-01-07T03:01:37.198Z,100.00
2023-01-07T03:09:21.555Z,100.00
2023-01-07T03:20:48.927Z,100.00
2023-01-07T03:32:19.198Z,100.00
2023-01-07T03:47:54.461Z,100.00
2023-01-07T03:50:59.764Z,100.00
2023-01-07T03:53:32.771Z,100.00
2023-01-07T04:18:27.420Z,100.00
2023-01-07T04:29:07.277Z,100.00
2023-01-07T04:31:40.316Z,100.00
2023-01-07T04:43:45.665Z,100.00
2023-01-07T05:04:10.441Z,100.00
2023-01-07T05:07:05.269Z,100.00
2023-01-07T05:09:44.831Z,100.00
2023-01-07T05:16:49.026Z,100.00
2023-01-07T05:20:12.411Z,100.00
2023-01-07T05:31:54.360Z,100.00
2023-01-07T05:34:28.664Z,100.00
2023-01-07T05:45:02.124Z,100.00
2023-01-07T05:55:50.357Z,100.00
2023-01-07T05:59:14.358Z,100.00
2023-01-07T06:06:17.101Z,100.00
2023-01-07T06:14:08.661Z,100.00
2023-01-07T06:18:31.443Z,100.00
2023-01-07T06:21:11.477Z,100.00
2023-01-07T06:23:59.907Z,100.00
2023-01-07T06:27:18.548Z,100.00
2023-01-07T06:29:51.435Z,100.00
2023-01-07T06:37:14.996Z,100.00
2023-01-07T06:39:56.641Z,100.00
2023-01-07T06:43:21.795Z,100.00
2023-01-07T06:47:46.111Z,100.00
2023-01-07T06:51:08.477Z,100.00
2023-01-07T06:53:44.093Z,100.00
2023-01-07T06:57:15.726Z,100.00
2023-01-07T07:00:11.943Z,100.00
2023-01-07T07:03:33.990Z,100.00
2023-01-07T07:06:07.701Z,100.00
2023-01-07T07:12:30.124Z,100.00
2023-01-07T07:15:10.514Z,100.00
2023-01-07T07:17:43.167Z,100.00
2023-01-07T07:20:21.109Z,100.00
2023-01-07T07:22:53.625Z,100.00
2023-01-07T07:25:26.542Z,100.00
2023-01-07T07:33:24.090Z,100.00
2023-01-07T07:35:56.595Z,100.00
2023-01-07T07:38:29.024Z,100.00
2023-01-07T07:41:08.049Z,100.00
2023-01-07T07:43:41.392Z,100.00
2023-01-07T07:46:40.033Z,100.00
2023-01-07T07:50:33.071Z,100.00
2023-01-07T07:56:56.221Z,100.00
2023-01-07T07:59:28.785Z,100.00
2023-01-07T08:02:57.790Z,100.00
2023-01-07T08:09:58.817Z,100.00
2023-01-07T08:12:33.038Z,100.00
2023-01-07T08:15:57.026Z,100.00
2023-01-07T08:18:31.790Z,100.00
2023-01-07T08:21:36.802Z,100.00
2023-01-07T08:25:16.143Z,100.00
2023-01-07T08:27:57.449Z,100.00
2023-01-07T08:30:30.820Z,100.00
2023-01-07T08:33:04.267Z,100.00
2023-01-07T08:36:23.159Z,100.00
2023-01-07T08:38:58.831Z,100.00
2023-01-07T08:46:47.927Z,100.00
2023-01-07T08:49:26.985Z,100.00
2023-01-07T08:51:59.383Z,100.00
2023-01-07T08:55:40.256Z,100.00
2023-01-07T08:58:12.744Z,100.00
2023-01-07T09:00:45.698Z,100.00
2023-01-07T09:03:24.964Z,100.00
2023-01-07T09:05:57.409Z,100.00
2023-01-07T09:08:31.631Z,100.00
2023-01-07T09:12:27.068Z,99.56
2023-01-07T09:15:02.246Z,98.40
2023-01-07T09:18:24.036Z,97.08
2023-01-07T09:25:50.549Z,93.76
2023-01-07T09:42:01.576Z,82.64
2023-01-07T09:58:28.594Z,84.84
2023-01-07T10:38:19.374Z,71.00
2023-01-07T10:45:59.335Z,70.72
2023-01-07T10:49:10.458Z,70.79
2023-01-07T11:03:40.329Z,63.11
2023-01-07T11:06:15.592Z,65.02
2023-01-07T11:09:50.341Z,62.64
2023-01-07T11:20:59.137Z,60.23
2023-01-07T11:24:47.467Z,58.59
2023-01-07T11:36:07.808Z,56.86
2023-01-07T11:52:30.212Z,58.05
2023-01-07T11:56:08.424Z,58.78
2023-01-07T11:58:49.195Z,58.78
2023-01-07T12:02:03.823Z,59.03
2023-01-07T12:04:43.077Z,59.72
2023-01-07T12:16:15.953Z,61.62
2023-01-07T12:19:15.602Z,62.31
2023-01-07T12:35:50.383Z,65.31
2023-01-07T12:54:04.521Z,64.38
2023-01-07T12:57:12.491Z,63.08
2023-01-07T13:04:08.569Z,63.89
2023-01-07T13:14:13.123Z,62.89
2023-01-07T13:16:45.823Z,62.95
2023-01-07T13:19:37.011Z,63.61
2023-01-07T13:23:05.627Z,63.70
2023-01-07T13:26:28.250Z,63.81
2023-01-07T13:29:20.925Z,64.18
2023-01-07T13:41:14.862Z,66.44
2023-01-07T13:53:08.374Z,68.22
2023-01-07T14:01:09.690Z,68.95
2023-01-07T14:08:15.611Z,69.78
2023-01-07T14:16:21.080Z,70.43
2023-01-07T14:23:39.537Z,71.20
2023-01-07T14:39:55.125Z,72.45
2023-01-07T14:47:47.132Z,72.77
2023-01-07T14:50:32.981Z,72.76
2023-01-07T14:53:49.597Z,72.84
2023-01-07T14:56:33.046Z,72.89
2023-01-07T14:59:38.383Z,73.04
2023-01-07T15:02:38.462Z,73.42
2023-01-07T15:05:57.857Z,73.16
2023-01-07T15:09:08.331Z,73.55
2023-01-07T15:12:08.735Z,73.51
2023-01-07T15:15:06.966Z,73.60
2023-01-07T15:17:45.029Z,73.82
2023-01-07T15:20:21.030Z,73.87
2023-01-07T15:23:11.034Z,74.09
2023-01-07T15:25:55.351Z,74.15
2023-01-07T15:28:42.321Z,74.29
2023-01-07T15:31:22.783Z,74.21
2023-01-07T15:34:12.087Z,74.32
2023-01-07T15:36:47.450Z,74.44
2023-01-07T15:39:29.749Z,74.42
2023-01-07T15:42:05.840Z,74.34
2023-01-07T15:44:45.464Z,74.46
2023-01-07T15:47:41.834Z,74.62
2023-01-07T15:50:27.720Z,74.85
2023-01-07T15:53:01.797Z,74.95
2023-01-07T15:55:37.570Z,74.85
2023-01-07T15:58:16.548Z,74.91
2023-01-07T16:00:52.922Z,75.18
2023-01-07T16:03:29.124Z,75.56
2023-01-07T16:06:02.206Z,75.41
2023-01-07T16:08:35.425Z,75.37
2023-01-07T16:17:19.792Z,75.81
2023-01-07T16:19:52.216Z,75.87
2023-01-07T16:22:28.829Z,75.87
2023-01-07T16:25:02.555Z,76.09
2023-01-07T16:27:38.733Z,75.87
2023-01-07T16:30:17.453Z,76.23
2023-01-07T16:32:50.120Z,76.29
2023-01-07T16:35:39.157Z,76.35
2023-01-07T16:38:16.700Z,76.29
2023-01-07T16:40:55.431Z,76.54
2023-01-07T16:43:46.821Z,76.50
2023-01-07T16:46:30.111Z,76.71
2023-01-07T16:49:31.665Z,76.72
2023-01-07T16:52:14.348Z,76.57
2023-01-07T16:54:47.816Z,76.92
2023-01-07T16:57:39.852Z,76.90
2023-01-07T17:00:25.292Z,77.15
2023-01-07T17:03:01.022Z,77.34
2023-01-07T17:05:35.279Z,77.24
2023-01-07T17:08:39.286Z,77.62
2023-01-07T17:11:24.508Z,77.32
2023-01-07T17:13:56.881Z,77.51
2023-01-07T17:16:33.617Z,77.81
2023-01-07T17:19:27.447Z,77.57
2023-01-07T17:22:00.028Z,77.55
2023-01-07T17:24:52.532Z,77.51
2023-01-07T17:27:31.051Z,77.86
2023-01-07T17:30:08.793Z,78.04
2023-01-07T17:32:43.558Z,78.26
2023-01-07T17:35:23.274Z,78.23
2023-01-07T17:37:56.889Z,78.11
2023-01-07T17:40:29.539Z,78.14
2023-01-07T17:43:34.868Z,78.36
2023-01-07T17:46:10.382Z,78.38
2023-01-07T17:48:42.806Z,78.62
2023-01-07T17:51:15.360Z,78.62
2023-01-07T17:53:49.451Z,78.58
2023-01-07T17:56:22.500Z,78.76
2023-01-07T17:58:56.229Z,78.80
2023-01-07T18:01:29.421Z,79.22
2023-01-07T18:04:02.234Z,79.14
2023-01-07T18:06:35.127Z,79.09
2023-01-07T18:09:08.751Z,79.07
2023-01-07T18:12:01.998Z,79.24
2023-01-07T18:14:34.472Z,79.45
2023-01-07T18:17:07.928Z,79.42
2023-01-07T18:19:40.421Z,79.68
2023-01-07T18:22:19.979Z,79.56
2023-01-07T18:24:52.748Z,79.67
2023-01-07T18:27:25.433Z,79.86
2023-01-07T18:29:58.083Z,79.94
2023-01-07T18:32:58.216Z,80.25
2023-01-07T18:35:30.926Z,80.58
2023-01-07T18:38:03.517Z,80.54
2023-01-07T18:40:35.908Z,80.54
2023-01-07T18:43:08.735Z,80.78
2023-01-07T18:45:43.305Z,80.70
2023-01-07T18:48:19.290Z,80.92
2023-01-07T18:50:53.980Z,81.01
2023-01-07T18:53:27.434Z,80.94
2023-01-07T18:56:03.867Z,81.03
2023-01-07T18:58:37.695Z,81.21
2023-01-07T19:01:11.922Z,81.29
2023-01-07T19:03:44.585Z,81.28
2023-01-07T19:06:19.120Z,81.13
2023-01-07T19:08:51.640Z,81.27
2023-01-07T19:11:31.578Z,81.43
2023-01-07T19:14:04.069Z,81.36
2023-01-07T19:16:39.058Z,81.26
2023-01-07T19:19:26.531Z,81.49
2023-01-07T19:22:01.285Z,81.67
2023-01-07T19:24:36.406Z,81.80
2023-01-07T19:27:08.888Z,81.75
2023-01-07T19:29:41.550Z,81.69
2023-01-07T19:32:14.007Z,81.69
2023-01-07T19:34:46.843Z,81.79
2023-01-07T19:37:22.042Z,81.70
2023-01-07T19:39:55.816Z,81.64
2023-01-07T19:42:28.791Z,81.76
2023-01-07T19:45:01.540Z,81.69
2023-01-07T19:47:35.496Z,81.77
2023-01-07T19:50:09.873Z,81.66
2023-01-07T19:52:47.564Z,81.85
2023-01-07T19:55:22.447Z,81.98
2023-01-07T19:58:02.355Z,81.90
2023-01-07T20:00:39.107Z,81.92
2023-01-07T20:03:11.635Z,81.92
2023-01-07T20:10:28.830Z,82.02
2023-01-07T20:13:01.384Z,82.22
2023-01-07T20:15:33.803Z,82.26
2023-01-07T20:18:09.292Z,82.18
2023-01-07T20:22:34.501Z,82.29
2023-01-07T20:25:16.821Z,82.51
2023-01-07T20:27:49.230Z,82.59
2023-01-07T20:30:27.972Z,82.72
2023-01-07T20:33:00.319Z,82.92
2023-01-07T20:35:39.886Z,83.08
2023-01-07T20:38:12.322Z,82.87
2023-01-07T20:40:50.802Z,82.81
2023-01-07T20:43:23.096Z,82.91
2023-01-07T20:46:03.960Z,83.24
2023-01-07T20:49:25.462Z,83.64
2023-01-07T20:52:30.797Z,83.48
2023-01-07T20:55:03.292Z,83.22
2023-01-07T20:57:44.765Z,83.31
2023-01-07T21:01:07.643Z,83.39
2023-01-07T21:04:02.277Z,83.42
2023-01-07T21:11:24.872Z,83.60
2023-01-07T21:22:30.071Z,84.00
2023-01-07T21:34:44.481Z,84.34
2023-01-07T21:37:16.999Z,84.62
2023-01-07T21:40:02.253Z,84.36
2023-01-07T21:43:15.747Z,84.26
2023-01-07T21:45:48.124Z,84.00
2023-01-07T21:48:23.186Z,84.39
2023-01-07T21:50:55.596Z,84.42
2023-01-07T21:53:33.536Z,84.26
2023-01-07T21:56:22.105Z,84.42
2023-01-07T21:58:54.558Z,84.11
2023-01-07T22:01:31.869Z,84.26
2023-01-07T22:04:04.578Z,84.35
2023-01-07T22:06:38.471Z,84.33
2023-01-07T22:12:15.588Z,84.72
2023-01-07T22:14:48.092Z,84.67
2023-01-07T22:17:20.731Z,84.67
2023-01-07T22:19:53.078Z,84.79
2023-01-07T22:22:27.283Z,84.75
2023-01-07T22:24:59.787Z,84.74
2023-01-07T22:27:33.658Z,85.14
2023-01-07T22:30:38.064Z,85.41
2023-01-07T22:33:10.624Z,85.24
2023-01-07T22:35:43.234Z,85.32
2023-01-07T22:38:46.121Z,85.96
2023-01-07T22:41:47.485Z,86.35
2023-01-07T22:53:25.972Z,88.64
2023-01-07T23:04:30.298Z,89.00
2023-01-07T23:12:06.275Z,88.57
2023-01-07T23:14:38.762Z,88.85
2023-01-07T23:21:01.238Z,89.20
2023-01-07T23:23:33.837Z,89.32
2023-01-07T23:31:07.183Z,89.38
2023-01-07T23:34:52.397Z,89.48
2023-01-07T23:37:30.863Z,89.26
2023-01-07T23:40:03.696Z,89.41
2023-01-07T23:43:03.692Z,89.65
2023-01-07T23:45:36.159Z,89.75
2023-01-07T23:48:37.133Z,90.71
2023-01-07T23:51:58.810Z,91.11
2023-01-07T23:54:44.339Z,90.65
2023-01-07T23:57:42.859Z,91.43
